createdAt,value
2019-06-01T00:01:16.702Z,3.30
2019-06-01T00:03:46.361Z,3.25
2019-06-01T00:06:15.036Z,3.22
2019-06-01T00:08:43.435Z,3.20
2019-06-01T00:11:11.880Z,3.30
2019-06-01T00:13:41.462Z,3.70
2019-06-01T00:16:10.073Z,3.37
2019-06-01T00:18:39.749Z,3.50
2019-06-01T00:21:08.298Z,3.17
2019-06-01T00:23:36.726Z,3.40
2019-06-01T00:26:07.076Z,3.40
2019-06-01T00:28:35.550Z,3.08
2019-06-01T00:31:04.075Z,3.30
2019-06-01T00:33:32.495Z,4.28
2019-06-01T00:36:00.942Z,3.62
2019-06-01T00:38:29.348Z,3.02
2019-06-01T00:40:57.834Z,3.05
2019-06-01T00:43:26.237Z,3.27
2019-06-01T00:45:54.677Z,3.72
2019-06-01T00:48:24.762Z,3.67
2019-06-01T00:50:53.329Z,3.77
2019-06-01T00:53:21.811Z,4.33
2019-06-01T00:55:51.580Z,3.67
2019-06-01T00:58:20.100Z,3.83
2019-06-01T01:00:49.460Z,3.85
2019-06-01T01:03:21.489Z,4.08
2019-06-01T01:05:50.684Z,3.87
2019-06-01T01:08:19.197Z,3.72
2019-06-01T01:10:48.989Z,3.90
2019-06-01T01:13:19.277Z,3.75
2019-06-01T01:15:47.766Z,3.87
2019-06-01T01:18:16.213Z,4.00
2019-06-01T01:20:45.751Z,4.17
2019-06-01T01:23:14.507Z,3.85
2019-06-01T01:25:42.936Z,4.15
2019-06-01T01:28:11.460Z,3.80
2019-06-01T01:30:40.626Z,3.55
2019-06-01T01:33:09.101Z,4.28
2019-06-01T01:35:37.497Z,3.60
2019-06-01T01:38:06.021Z,3.85
2019-06-01T01:40:34.473Z,3.65
2019-06-01T01:43:05.018Z,4.17
2019-06-01T01:45:33.429Z,3.75
2019-06-01T01:48:01.898Z,4.00
2019-06-01T01:50:30.462Z,4.12
2019-06-01T01:52:59.070Z,3.98
2019-06-01T01:55:27.836Z,3.52
2019-06-01T01:57:57.593Z,3.95
2019-06-01T02:00:34.669Z,3.45
2019-06-01T02:03:03.279Z,4.00
2019-06-01T02:05:33.245Z,4.10
2019-06-01T02:08:02.028Z,4.10
2019-06-01T02:10:30.633Z,4.17
2019-06-01T02:13:02.274Z,3.77
2019-06-01T02:15:32.951Z,4.00
2019-06-01T02:18:02.814Z,3.98
2019-06-01T02:20:31.791Z,3.30
2019-06-01T02:23:01.010Z,3.72
2019-06-01T02:25:29.681Z,4.10
2019-06-01T02:27:59.242Z,3.67
2019-06-01T02:30:27.914Z,3.50
2019-06-01T02:32:58.309Z,3.75
2019-06-01T02:35:29.791Z,3.70
2019-06-01T02:37:58.643Z,4.10
2019-06-01T02:40:27.765Z,3.85
2019-06-01T02:42:57.221Z,3.80
2019-06-01T02:45:27.484Z,3.85
2019-06-01T02:47:57.465Z,3.70
2019-06-01T02:50:26.590Z,3.80
2019-06-01T02:52:55.548Z,4.10
2019-06-01T02:55:25.914Z,4.40
2019-06-01T02:57:54.333Z,3.95
2019-06-01T03:00:49.596Z,4.10
2019-06-01T03:03:18.538Z,4.75
2019-06-01T03:05:48.129Z,4.10
2019-06-01T03:08:18.694Z,3.98
2019-06-01T03:10:48.458Z,4.17
2019-06-01T03:13:19.228Z,4.17
2019-06-01T03:15:48.194Z,4.42
2019-06-01T03:18:18.213Z,3.80
2019-06-01T03:20:50.061Z,4.50
2019-06-01T03:23:20.084Z,4.20
2019-06-01T03:25:51.066Z,4.40
2019-06-01T03:28:22.571Z,3.90
2019-06-01T03:30:51.075Z,4.55
2019-06-01T03:33:19.489Z,4.58
2019-06-01T03:35:48.060Z,4.70
2019-06-01T03:38:16.536Z,4.92
2019-06-01T03:40:45.033Z,4.72
2019-06-01T03:43:14.220Z,4.97
2019-06-01T03:45:42.675Z,4.78
2019-06-01T03:48:13.971Z,4.90
2019-06-01T03:50:42.403Z,5.00
2019-06-01T03:53:12.070Z,4.87
2019-06-01T03:55:40.701Z,4.87
2019-06-01T03:58:09.194Z,4.58
2019-06-01T04:00:37.629Z,5.25
2019-06-01T04:03:09.233Z,5.33
2019-06-01T04:05:37.789Z,5.40
2019-06-01T04:08:07.419Z,4.87
2019-06-01T04:10:35.994Z,5.00
2019-06-01T04:13:05.517Z,5.00
2019-06-01T04:15:34.361Z,5.92
2019-06-01T04:18:03.910Z,6.28
2019-06-01T04:20:32.358Z,4.62
2019-06-01T04:23:01.985Z,5.05
2019-06-01T04:25:32.132Z,4.25
2019-06-01T04:28:02.097Z,3.90
2019-06-01T04:30:31.120Z,3.83
2019-06-01T04:33:00.580Z,4.40
2019-06-01T04:35:29.045Z,4.83
2019-06-01T04:37:57.525Z,4.70
2019-06-01T04:40:25.969Z,4.58
2019-06-01T04:42:54.397Z,4.00
2019-06-01T04:45:22.866Z,4.15
2019-06-01T04:47:51.305Z,4.00
2019-06-01T04:50:19.710Z,4.35
2019-06-01T04:52:49.683Z,4.55
2019-06-01T04:55:18.099Z,4.00
2019-06-01T04:57:46.520Z,3.67
2019-06-01T05:00:25.704Z,3.90
2019-06-01T05:02:48.638Z,4.00
2019-06-01T05:05:18.750Z,3.80
2019-06-01T05:07:47.325Z,3.70
2019-06-01T05:10:16.175Z,4.53
2019-06-01T05:12:44.652Z,3.42
2019-06-01T05:15:15.942Z,3.20
2019-06-01T05:17:44.662Z,3.27
2019-06-01T05:20:14.877Z,3.02
2019-06-01T05:22:43.363Z,3.02
2019-06-01T05:25:13.526Z,2.92
2019-06-01T05:27:42.186Z,2.87
2019-06-01T05:30:11.571Z,2.70
2019-06-01T05:32:40.035Z,2.70
2019-06-01T05:35:09.651Z,2.52
2019-06-01T05:37:38.293Z,2.80
2019-06-01T05:40:10.351Z,2.87
2019-06-01T05:42:39.262Z,2.70
2019-06-01T05:45:09.362Z,2.70
2019-06-01T05:47:38.060Z,2.30
2019-06-01T05:50:10.611Z,2.42
2019-06-01T05:52:39.275Z,2.67
2019-06-01T05:55:07.780Z,2.45
2019-06-01T05:57:36.256Z,2.65
2019-06-01T06:00:09.209Z,2.52
2019-06-01T06:02:38.375Z,2.60
2019-06-01T06:05:07.741Z,2.50
2019-06-01T06:07:37.304Z,2.20
2019-06-01T06:10:08.423Z,2.20
2019-06-01T06:12:36.816Z,2.45
2019-06-01T06:15:07.025Z,2.45
2019-06-01T06:17:35.503Z,1.95
2019-06-01T06:20:06.341Z,1.95
2019-06-01T06:22:36.298Z,2.15
2019-06-01T06:25:06.181Z,1.57
2019-06-01T06:27:34.732Z,1.95
2019-06-01T06:30:05.277Z,2.05
2019-06-01T06:32:33.681Z,2.05
2019-06-01T06:35:02.124Z,1.50
2019-06-01T06:37:30.544Z,1.67
2019-06-01T06:39:58.982Z,1.60
2019-06-01T06:42:27.468Z,1.70
2019-06-01T06:44:55.885Z,1.40
2019-06-01T06:47:25.113Z,1.62
2019-06-01T06:49:53.653Z,1.77
2019-06-01T06:52:22.111Z,1.45
2019-06-01T06:54:50.584Z,1.52
2019-06-01T06:57:20.077Z,1.40
2019-06-01T06:59:48.717Z,1.50
2019-06-01T07:02:17.243Z,2.08
2019-06-01T07:04:45.897Z,1.77
2019-06-01T07:07:14.368Z,1.62
2019-06-01T07:09:42.782Z,1.35
2019-06-01T07:12:11.228Z,1.55
2019-06-01T07:14:39.740Z,1.70
2019-06-01T07:17:08.181Z,1.67
2019-06-01T07:19:36.597Z,1.80
2019-06-01T07:22:05.051Z,1.75
2019-06-01T07:24:33.562Z,1.72
2019-06-01T07:27:02.093Z,2.02
2019-06-01T07:29:30.513Z,2.52
2019-06-01T07:31:58.942Z,2.33
2019-06-01T07:34:37.684Z,2.30
2019-06-01T07:36:57.609Z,2.67
2019-06-01T07:39:26.805Z,2.60
2019-06-01T07:41:55.523Z,2.40
2019-06-01T07:44:25.040Z,2.45
2019-06-01T07:46:56.545Z,1.60
2019-06-01T07:49:25.108Z,1.67
2019-06-01T07:51:55.270Z,1.45
2019-06-01T07:54:24.872Z,1.32
2019-06-01T07:56:53.400Z,1.42
2019-06-01T07:59:22.975Z,1.40
2019-06-01T08:01:51.968Z,1.40
2019-06-01T08:04:21.014Z,1.50
2019-06-01T08:06:50.592Z,1.50
2019-06-01T08:09:19.076Z,1.32
2019-06-01T08:11:47.522Z,1.42
2019-06-01T08:14:15.984Z,1.47
2019-06-01T08:16:44.410Z,1.47
2019-06-01T08:19:12.904Z,1.70
2019-06-01T08:21:41.320Z,1.65
2019-06-01T08:24:09.788Z,1.30
2019-06-01T08:26:38.342Z,1.27
2019-06-01T08:29:06.786Z,1.50
2019-06-01T08:31:35.216Z,1.10
2019-06-01T08:34:03.856Z,1.60
2019-06-01T08:36:33.897Z,1.37
2019-06-01T08:39:02.581Z,1.67
2019-06-01T08:41:31.553Z,1.30
2019-06-01T08:44:00.109Z,1.30
2019-06-01T08:46:29.675Z,1.42
2019-06-01T08:48:58.725Z,1.10
2019-06-01T08:51:28.221Z,1.27
2019-06-01T08:53:56.833Z,1.10
2019-06-01T08:56:26.195Z,1.20
2019-06-01T08:58:54.693Z,1.30
2019-06-01T09:01:24.425Z,1.20
2019-06-01T09:03:53.000Z,1.40
2019-06-01T09:06:21.455Z,1.40
2019-06-01T09:08:49.888Z,0.90
2019-06-01T09:11:18.317Z,1.40
2019-06-01T09:13:46.773Z,1.20
2019-06-01T09:16:15.290Z,1.12
2019-06-01T09:18:43.808Z,1.10
2019-06-01T09:21:12.297Z,0.98
2019-06-01T09:23:40.711Z,1.00
2019-06-01T09:26:09.152Z,1.22
2019-06-01T09:28:37.569Z,0.93
2019-06-01T09:31:06.036Z,1.02
2019-06-01T09:33:35.243Z,1.20
2019-06-01T09:36:04.873Z,1.12
2019-06-01T09:38:33.806Z,0.98
2019-06-01T09:41:02.461Z,0.98
2019-06-01T09:43:31.246Z,1.20
2019-06-01T09:45:59.711Z,1.00
2019-06-01T09:48:29.285Z,1.22
2019-06-01T09:50:57.771Z,1.10
2019-06-01T09:53:30.631Z,1.00
2019-06-01T09:55:59.507Z,0.85
2019-06-01T09:58:28.187Z,1.10
2019-06-01T10:00:56.628Z,1.10
2019-06-01T10:03:25.076Z,1.20
2019-06-01T10:06:01.774Z,0.80
2019-06-01T10:08:23.728Z,0.90
2019-06-01T10:10:52.187Z,0.90
2019-06-01T10:13:20.652Z,0.90
2019-06-01T10:15:49.153Z,0.90
2019-06-01T10:18:17.578Z,1.02
2019-06-01T10:20:45.997Z,1.10
2019-06-01T10:23:14.453Z,1.10
2019-06-01T10:25:42.892Z,0.80
2019-06-01T10:28:11.337Z,0.90
2019-06-01T10:30:39.982Z,1.00
2019-06-01T10:33:08.553Z,0.90
2019-06-01T10:35:37.013Z,0.93
2019-06-01T10:38:05.549Z,1.10
2019-06-01T10:40:35.325Z,0.80
2019-06-01T10:43:04.159Z,0.80
2019-06-01T10:45:33.553Z,0.90
2019-06-01T10:48:02.340Z,0.90
2019-06-01T10:50:32.761Z,0.75
2019-06-01T10:53:00.940Z,0.95
2019-06-01T10:55:29.373Z,0.90
2019-06-01T10:57:57.825Z,1.05
2019-06-01T11:00:37.774Z,0.90
2019-06-01T11:02:56.544Z,0.88
2019-06-01T11:05:25.000Z,1.00
2019-06-01T11:07:53.443Z,0.88
2019-06-01T11:10:22.077Z,1.00
2019-06-01T11:12:50.524Z,0.90
2019-06-01T11:15:19.041Z,0.70
2019-06-01T11:17:47.548Z,0.82
2019-06-01T11:20:16.997Z,0.80
2019-06-01T11:22:45.449Z,0.80
2019-06-01T11:25:13.928Z,1.15
2019-06-01T11:27:43.873Z,0.80
2019-06-01T11:30:14.425Z,1.10
2019-06-01T11:32:43.646Z,0.90
2019-06-01T11:35:14.063Z,0.80
2019-06-01T11:37:42.507Z,0.70
2019-06-01T11:40:11.263Z,0.90
2019-06-01T11:42:40.918Z,0.70
2019-06-01T11:45:10.737Z,0.70
2019-06-01T11:47:39.309Z,0.78
2019-06-01T11:50:08.749Z,0.60
2019-06-01T11:52:39.253Z,0.90
2019-06-01T11:55:08.985Z,0.70
2019-06-01T11:57:37.568Z,0.62
2019-06-01T12:00:14.052Z,0.70
2019-06-01T12:02:43.556Z,0.75
2019-06-01T12:05:12.828Z,0.80
2019-06-01T12:07:41.952Z,0.80
2019-06-01T12:10:11.180Z,0.72
2019-06-01T12:12:40.192Z,0.85
2019-06-01T12:15:09.342Z,0.70
2019-06-01T12:17:38.711Z,0.60
2019-06-01T12:20:08.413Z,0.68
2019-06-01T12:22:36.877Z,0.80
2019-06-01T12:25:06.386Z,0.90
2019-06-01T12:27:34.987Z,0.80
2019-06-01T12:30:05.529Z,0.53
2019-06-01T12:32:33.961Z,0.55
2019-06-01T12:35:03.500Z,0.70
2019-06-01T12:37:45.392Z,0.60
2019-06-01T12:40:02.537Z,0.60
2019-06-01T12:42:30.965Z,0.60
2019-06-01T12:44:59.376Z,0.62
2019-06-01T12:47:27.877Z,0.95
2019-06-01T12:49:56.293Z,0.70
2019-06-01T12:52:24.753Z,0.70
2019-06-01T12:54:53.244Z,0.50
2019-06-01T12:57:21.712Z,0.57
2019-06-01T12:59:51.245Z,0.50
2019-06-01T13:02:20.008Z,0.62
2019-06-01T13:04:49.065Z,0.68
2019-06-01T13:07:17.749Z,0.70
2019-06-01T13:09:46.321Z,0.70
2019-06-01T13:12:14.887Z,0.70
2019-06-01T13:14:43.296Z,0.65
2019-06-01T13:17:11.750Z,0.70
2019-06-01T13:19:41.300Z,0.60
2019-06-01T13:22:09.952Z,0.70
2019-06-01T13:24:38.416Z,0.70
2019-06-01T13:27:07.025Z,0.70
2019-06-01T13:29:35.498Z,0.50
2019-06-01T13:32:04.217Z,0.68
2019-06-01T13:34:34.151Z,0.70
2019-06-01T13:37:02.816Z,0.80
2019-06-01T13:39:31.248Z,0.60
2019-06-01T13:41:59.777Z,1.02
2019-06-01T13:44:28.202Z,0.80
2019-06-01T13:46:56.630Z,0.70
2019-06-01T13:49:25.133Z,0.47
2019-06-01T13:51:54.682Z,0.90
2019-06-01T13:54:23.176Z,0.80
2019-06-01T13:56:52.906Z,0.60
2019-06-01T13:59:21.859Z,0.72
2019-06-01T14:01:51.411Z,0.50
2019-06-01T14:04:20.056Z,0.65
2019-06-01T14:06:49.025Z,0.80
2019-06-01T14:09:17.653Z,0.85
2019-06-01T14:11:47.266Z,0.70
2019-06-01T14:14:15.914Z,0.53
2019-06-01T14:16:45.441Z,0.57
2019-06-01T14:19:14.130Z,0.60
2019-06-01T14:21:42.546Z,0.60
2019-06-01T14:24:10.982Z,0.60
2019-06-01T14:26:39.411Z,0.60
2019-06-01T14:29:07.861Z,0.62
2019-06-01T14:31:36.261Z,0.65
2019-06-01T14:34:04.758Z,0.60
2019-06-01T14:36:33.164Z,0.57
2019-06-01T14:39:01.644Z,0.90
2019-06-01T14:41:30.052Z,0.62
2019-06-01T14:43:58.500Z,0.62
2019-06-01T14:46:26.924Z,0.53
2019-06-01T14:48:55.823Z,0.45
2019-06-01T14:51:24.276Z,0.60
2019-06-01T14:53:53.688Z,0.70
2019-06-01T14:56:22.298Z,0.70
2019-06-01T14:58:51.850Z,0.60
2019-06-01T15:01:31.783Z,0.82
2019-06-01T15:03:50.724Z,1.07
2019-06-01T15:06:20.819Z,0.80
2019-06-01T15:09:09.291Z,0.50
2019-06-01T15:11:19.655Z,0.50
2019-06-01T15:13:48.288Z,0.55
2019-06-01T15:16:16.829Z,0.53
2019-06-01T15:18:45.248Z,0.65
2019-06-01T15:21:13.673Z,0.60
2019-06-01T15:23:42.093Z,0.60
2019-06-01T15:26:10.562Z,0.57
2019-06-01T15:28:39.004Z,0.50
2019-06-01T15:31:07.430Z,0.80
2019-06-01T15:33:35.840Z,0.70
2019-06-01T15:36:04.461Z,0.70
2019-06-01T15:38:32.958Z,0.65
2019-06-01T15:41:02.389Z,0.70
2019-06-01T15:43:31.059Z,0.70
2019-06-01T15:45:59.825Z,0.60
2019-06-01T15:48:28.289Z,0.57
2019-06-01T15:51:03.512Z,0.88
2019-06-01T15:53:26.922Z,1.20
2019-06-01T15:55:56.485Z,0.70
2019-06-01T15:58:25.059Z,0.60
2019-06-01T16:00:54.928Z,0.50
2019-06-01T16:03:23.526Z,0.45
2019-06-01T16:05:53.019Z,0.60
2019-06-01T16:08:21.575Z,0.50
2019-06-01T16:10:50.081Z,0.80
2019-06-01T16:13:18.498Z,0.45
2019-06-01T16:15:47.020Z,0.70
2019-06-01T16:18:15.436Z,0.90
2019-06-01T16:20:43.928Z,0.80
2019-06-01T16:23:12.389Z,0.42
2019-06-01T16:25:40.833Z,0.82
2019-06-01T16:28:09.303Z,0.60
2019-06-01T16:30:37.783Z,0.50
2019-06-01T16:33:06.235Z,0.57
2019-06-01T16:35:34.640Z,0.60
2019-06-01T16:38:04.499Z,0.65
2019-06-01T16:40:33.244Z,0.78
2019-06-01T16:43:01.824Z,0.60
2019-06-01T16:45:30.304Z,0.68
2019-06-01T16:47:59.491Z,0.60
2019-06-01T16:50:27.926Z,0.60
2019-06-01T16:52:57.789Z,0.62
2019-06-01T16:55:26.417Z,0.70
2019-06-01T16:57:54.879Z,0.60
2019-06-01T17:00:23.441Z,0.70
2019-06-01T17:02:51.953Z,0.75
2019-06-01T17:05:20.452Z,3.83
2019-06-01T17:07:49.048Z,2.40
2019-06-01T17:10:26.098Z,1.35
2019-06-01T17:12:48.082Z,0.80
2019-06-01T17:15:17.969Z,0.80
2019-06-01T17:17:46.378Z,0.78
2019-06-01T17:20:41.842Z,0.80
2019-06-01T17:23:25.835Z,1.30
2019-06-01T17:25:40.905Z,0.78
2019-06-01T17:28:09.517Z,1.10
2019-06-01T17:30:38.219Z,1.20
2019-06-01T17:33:06.837Z,1.10
2019-06-01T17:35:36.301Z,0.93
2019-06-01T17:38:07.033Z,0.60
2019-06-01T17:40:38.375Z,0.60
2019-06-01T17:43:06.968Z,0.50
2019-06-01T17:45:36.041Z,0.53
2019-06-01T17:48:19.415Z,0.60
2019-06-01T17:50:35.784Z,0.50
2019-06-01T17:53:04.669Z,0.68
2019-06-01T17:55:37.918Z,0.78
2019-06-01T17:58:10.061Z,0.82
2019-06-01T18:00:39.822Z,0.90
2019-06-01T18:03:08.247Z,1.02
2019-06-01T18:05:37.474Z,0.90
2019-06-01T18:08:06.411Z,0.78
2019-06-01T18:10:52.028Z,0.68
2019-06-01T18:13:06.407Z,0.95
2019-06-01T18:15:35.168Z,0.90
2019-06-01T18:18:08.497Z,0.88
2019-06-01T18:20:37.676Z,0.80
2019-06-01T18:23:08.307Z,0.70
2019-06-01T18:25:36.561Z,1.00
2019-06-01T18:28:06.810Z,1.47
2019-06-01T18:30:35.500Z,1.30
2019-06-01T18:33:04.890Z,1.20
2019-06-01T18:35:33.498Z,1.00
2019-06-01T18:38:01.985Z,1.30
2019-06-01T18:40:30.505Z,1.70
2019-06-01T18:43:06.011Z,1.80
2019-06-01T18:45:35.343Z,1.90
2019-06-01T18:48:05.920Z,2.02
2019-06-01T18:50:35.085Z,1.98
2019-06-01T18:53:03.956Z,2.00
2019-06-01T18:55:35.286Z,2.30
2019-06-01T18:58:03.953Z,2.00
2019-06-01T19:00:32.792Z,1.85
2019-06-01T19:03:01.318Z,2.85
2019-06-01T19:05:29.953Z,3.20
2019-06-01T19:07:58.506Z,2.20
2019-06-01T19:10:29.824Z,2.10
2019-06-01T19:12:58.263Z,1.77
2019-06-01T19:15:28.994Z,2.12
2019-06-01T19:17:57.002Z,1.80
2019-06-01T19:20:25.414Z,1.75
2019-06-01T19:22:53.915Z,1.55
2019-06-01T19:25:22.424Z,1.80
2019-06-01T19:27:50.878Z,1.20
2019-06-01T19:30:36.830Z,1.67
2019-06-01T19:33:06.777Z,1.65
2019-06-01T19:35:35.648Z,1.27
2019-06-01T19:38:04.431Z,1.40
2019-06-01T19:40:34.994Z,1.50
2019-06-01T19:43:04.268Z,1.45
2019-06-01T19:45:32.762Z,1.57
2019-06-01T19:48:01.269Z,1.70
2019-06-01T19:50:29.785Z,1.50
2019-06-01T19:52:58.221Z,2.15
2019-06-01T19:55:26.662Z,1.92
2019-06-01T19:57:55.102Z,2.22
2019-06-01T20:00:23.700Z,2.20
2019-06-01T20:02:52.145Z,2.00
2019-06-01T20:05:20.559Z,2.22
2019-06-01T20:07:49.060Z,2.12
2019-06-01T20:10:18.522Z,2.22
2019-06-01T20:12:47.513Z,2.27
2019-06-01T20:15:17.360Z,2.10
2019-06-01T20:17:46.090Z,2.25
2019-06-01T20:20:19.335Z,2.67
2019-06-01T20:22:47.898Z,2.72
2019-06-01T20:25:17.627Z,2.65
2019-06-01T20:27:46.147Z,2.27
2019-06-01T20:30:15.891Z,2.90
2019-06-01T20:32:44.308Z,2.45
2019-06-01T20:35:13.894Z,2.25
2019-06-01T20:37:42.530Z,2.50
2019-06-01T20:40:12.146Z,2.08
2019-06-01T20:42:40.833Z,2.58
2019-06-01T20:45:09.526Z,2.80
2019-06-01T20:47:38.032Z,2.95
2019-06-01T20:50:08.145Z,2.87
2019-06-01T20:52:36.717Z,2.72
2019-06-01T20:55:09.385Z,3.15
2019-06-01T20:57:37.805Z,3.40
2019-06-01T21:00:07.761Z,3.20
2019-06-01T21:02:36.525Z,3.12
2019-06-01T21:05:08.356Z,3.52
2019-06-01T21:07:36.850Z,3.50
2019-06-01T21:10:09.506Z,3.92
2019-06-01T21:12:46.201Z,3.25
2019-06-01T21:15:11.462Z,3.20
2019-06-01T21:17:39.909Z,3.20
2019-06-01T21:20:09.117Z,3.05
2019-06-01T21:22:38.184Z,3.20
2019-06-01T21:25:08.374Z,3.35
2019-06-01T21:27:36.880Z,2.80
2019-06-01T21:30:09.283Z,2.72
2019-06-01T21:32:37.725Z,2.87
2019-06-01T21:35:06.684Z,3.20
2019-06-01T21:37:35.128Z,2.60
2019-06-01T21:40:05.253Z,2.80
2019-06-01T21:42:38.156Z,2.85
2019-06-01T21:45:06.295Z,2.80
2019-06-01T21:47:34.998Z,2.90
2019-06-01T21:50:05.487Z,2.72
2019-06-01T21:52:33.933Z,2.75
2019-06-01T21:55:02.422Z,3.02
2019-06-01T21:57:30.969Z,2.90
2019-06-01T21:59:59.428Z,2.70
2019-06-01T22:02:28.207Z,2.33
2019-06-01T22:04:56.680Z,2.55
2019-06-01T22:07:25.346Z,3.27
2019-06-01T22:09:53.918Z,3.05
2019-06-01T22:12:23.520Z,3.25
2019-06-01T22:14:52.073Z,3.30
2019-06-01T22:17:21.781Z,3.17
2019-06-01T22:19:50.287Z,3.17
2019-06-01T22:22:19.585Z,3.35
2019-06-01T22:24:48.119Z,3.40
2019-06-01T22:27:18.012Z,3.15
2019-06-01T22:29:46.602Z,3.12
2019-06-01T22:32:15.110Z,2.72
2019-06-01T22:34:43.559Z,3.20
2019-06-01T22:37:12.017Z,3.40
2019-06-01T22:39:40.426Z,3.40
2019-06-01T22:42:08.837Z,3.52
2019-06-01T22:44:37.325Z,3.42
2019-06-01T22:47:05.797Z,3.42
2019-06-01T22:49:34.220Z,2.98
2019-06-01T22:52:02.667Z,3.27
2019-06-01T22:54:31.376Z,3.10
2019-06-01T22:56:59.964Z,3.40
2019-06-01T22:59:28.721Z,3.17
2019-06-01T23:01:57.362Z,3.58
2019-06-01T23:04:27.163Z,3.47
2019-06-01T23:06:55.607Z,3.87
2019-06-01T23:09:25.458Z,3.92
2019-06-01T23:11:54.023Z,3.80
2019-06-01T23:14:23.360Z,3.30
2019-06-01T23:16:52.060Z,3.35
2019-06-01T23:19:21.568Z,3.55
2019-06-01T23:21:50.096Z,3.50
2019-06-01T23:24:18.592Z,3.70
2019-06-01T23:26:47.058Z,3.50
2019-06-01T23:29:15.489Z,4.20
2019-06-01T23:31:43.899Z,4.37
2019-06-01T23:34:12.354Z,3.95
2019-06-01T23:36:40.746Z,4.15
2019-06-01T23:39:09.178Z,3.62
2019-06-01T23:41:37.588Z,3.67
2019-06-01T23:44:11.965Z,4.00
2019-06-01T23:46:36.129Z,4.37
2019-06-01T23:49:04.630Z,4.10
2019-06-01T23:51:33.961Z,4.37
2019-06-01T23:54:02.474Z,4.10
2019-06-01T23:56:31.947Z,4.40
2019-06-01T23:59:00.493Z,3.80
